sensor_id;sensor_type;location;lat;lon;timestamp;temperature;humidity
15184;DHT22;7693;49.266;7.104;2024-01-15T06:13:42;-1.20;99.90
15184;DHT22;7693;49.266;7.104;2024-01-15T06:16:17;-1.20;99.90
15184;DHT22;7693;49.266;7.104;2024-01-15T06:18:45;-1.10;99.90
15184;DHT22;7693;49.266;7.104;2024-01-15T06:21:11;-1.10;99.90
15184;DHT22;7693;49.266;7.104;2024-01-15T06:23:40;-1.00;99.90
15184;DHT22;7693;49.266;7.104;2024-01-15T06:26:05;-1.00;99.90
15184;DHT22;7693;49.266;7.104;2024-01-15T06:28:31;-1.00;99.90
15184;DHT22;7693;49.266;7.104;2024-01-15T06:30:57;-1.00;99.90
15184;DHT22;7693;49.266;7.104;2024-01-15T06:33:23;-1.00;99.90
15184;DHT22;7693;49.266;7.104;2024-01-15T06:35:49;-1.00;99.90
15184;DHT22;7693;49.266;7.104;2024-01-15T06:38:15;-1.00;99.90
15184;DHT22;7693;49.266;7.104;2024-01-15T06:40:41;-1.00;99.90
15184;DHT22;7693;49.266;7.104;2024-01-15T06:43:11;-0.90;99.90
15184;DHT22;7693;49.266;7.104;2024-01-15T06:45:37;-0.90;99.90
15184;DHT22;7693;49.266;7.104;2024-01-15T06:48:03;-0.90;99.90
15184;DHT22;7693;49.266;7.104;2024-01-15T06:50:28;-0.90;99.90
15184;DHT22;7693;49.266;7.104;2024-01-15T06:52:54;-0.90;99.90
15184;DHT22;7693;49.266;7.104;2024-01-15T06:55:20;-0.90;99.90
15184;DHT22;7693;49.266;7.104;2024-01-15T06:57:45;-0.90;99.90
15184;DHT22;7693;49.266;7.104;2024-01-15T07:00:11;-0.80;99.90
15184;DHT22;7693;49.266;7.104;2024-01-15T07:02:37;-0.80;99.90
15184;DHT22;7693;49.266;7.104;2024-01-15T07:05:03;-0.80;99.90
15184;DHT22;7693;49.266;7.104;2024-01-15T07:07:30;-0.80;99.90
15184;DHT22;7693;49.266;7.104;2024-01-15T07:09:56;-0.80;99.90
15184;DHT22;7693;49.266;7.104;2024-01-15T07:12:22;-0.80;99.90
15184;DHT22;7693;49.266;7.104;2024-01-15T07:14:48;-0.80;99.90
15184;DHT22;7693;49.266;7.104;2024-01-15T07:17:15;-0.80;99.90
15184;DHT22;7693;49.266;7.104;2024-01-15T07:19:41;-0.80;99.90
15184;DHT22;7693;49.266;7.104;2024-01-15T07:22:07;-0.70;99.90
15184;DHT22;7693;49.266;7.104;2024-01-15T07:24:32;-0.70;99.90
15184;DHT22;7693;49.266;7.104;2024-01-15T07:27:01;-0.80;99.90
15184;DHT22;7693;49.266;7.104;2024-01-15T07:29:26;-0.70;99.90
15184;DHT22;7693;49.266;7.104;2024-01-15T07:31:52;-0.80;99.90
15184;DHT22;7693;49.266;7.104;2024-01-15T07:34:18;-0.70;99.90
15184;DHT22;7693;49.266;7.104;2024-01-15T07:36:44;-0.80;99.90
15184;DHT22;7693;49.266;7.104;2024-01-15T07:39:10;-0.80;99.90
15184;DHT22;7693;49.266;7.104;2024-01-15T07:41:36;-0.80;99.90
15184;DHT22;7693;49.266;7.104;2024-01-15T07:44:02;-0.70;99.90
15184;DHT22;7693;49.266;7.104;2024-01-15T07:46:28;-0.70;99.90
15184;DHT22;7693;49.266;7.104;2024-01-15T07:48:53;-0.70;99.90
15184;DHT22;7693;49.266;7.104;2024-01-15T07:51:26;-0.70;99.90
15184;DHT22;7693;49.266;7.104;2024-01-15T07:53:53;-0.70;99.90
15184;DHT22;7693;49.266;7.104;2024-01-15T07:56:20;-0.70;99.90
15184;DHT22;7693;49.266;7.104;2024-01-15T07:58:46;-0.70;99.90
15184;DHT22;7693;49.266;7.104;2024-01-15T08:01:12;-0.70;99.90
15184;DHT22;7693;49.266;7.104;2024-01-15T08:03:38;-0.60;99.90
15184;DHT22;7693;49.266;7.104;2024-01-15T08:06:05;-0.60;99.90
15184;DHT22;7693;49.266;7.104;2024-01-15T08:08:31;-0.60;99.90
15184;DHT22;7693;49.266;7.104;2024-01-15T08:10:56;-0.60;99.90
15184;DHT22;7693;49.266;7.104;2024-01-15T08:13:22;-0.60;99.90
15184;DHT22;7693;49.266;7.104;2024-01-15T08:15:48;-0.50;99.90
15184;DHT22;7693;49.266;7.104;2024-01-15T08:18:13;-0.50;99.90
15184;DHT22;7693;49.266;7.104;2024-01-15T08:20:39;-0.40;99.90
15184;DHT22;7693;49.266;7.104;2024-01-15T08:23:05;-0.40;99.90
15184;DHT22;7693;49.266;7.104;2024-01-15T08:25:31;-0.40;99.90
15184;DHT22;7693;49.266;7.104;2024-01-15T08:27:57;-0.40;99.90
15184;DHT22;7693;49.266;7.104;2024-01-15T08:30:25;-0.30;99.90
15184;DHT22;7693;49.266;7.104;2024-01-15T08:32:53;-0.30;99.90
15184;DHT22;7693;49.266;7.104;2024-01-15T08:35:19;-0.30;99.90
15184;DHT22;7693;49.266;7.104;2024-01-15T08:37:52;-0.40;99.90
15184;DHT22;7693;49.266;7.104;2024-01-15T08:40:18;-0.30;99.90
15184;DHT22;7693;49.266;7.104;2024-01-15T08:42:44;-0.30;99.90
15184;DHT22;7693;49.266;7.104;2024-01-15T08:45:11;-0.30;99.90
15184;DHT22;7693;49.266;7.104;2024-01-15T08:47:36;-0.30;99.90
15184;DHT22;7693;49.266;7.104;2024-01-15T08:50:02;-0.30;99.90
15184;DHT22;7693;49.266;7.104;2024-01-15T08:52:29;-0.20;99.90
15184;DHT22;7693;49.266;7.104;2024-01-15T08:54:58;-0.20;99.90
15184;DHT22;7693;49.266;7.104;2024-01-15T08:57:24;-0.20;99.90
15184;DHT22;7693;49.266;7.104;2024-01-15T08:59:50;-0.10;99.90
15184;DHT22;7693;49.266;7.104;2024-01-15T09:02:16;-0.10;99.90
15184;DHT22;7693;49.266;7.104;2024-01-15T09:04:42;0.00;99.90
15184;DHT22;7693;49.266;7.104;2024-01-15T09:07:08;0.00;99.90
15184;DHT22;7693;49.266;7.104;2024-01-15T09:09:33;0.00;99.90
15184;DHT22;7693;49.266;7.104;2024-01-15T09:12:00;0.00;99.90
15184;DHT22;7693;49.266;7.104;2024-01-15T09:14:26;0.00;99.90
15184;DHT22;7693;49.266;7.104;2024-01-15T09:16:53;0.10;99.90
15184;DHT22;7693;49.266;7.104;2024-01-15T09:19:19;0.10;99.90
15184;DHT22;7693;49.266;7.104;2024-01-15T09:21:44;0.20;99.90
15184;DHT22;7693;49.266;7.104;2024-01-15T09:24:11;0.20;99.90
15184;DHT22;7693;49.266;7.104;2024-01-15T09:26:36;0.20;99.90
15184;DHT22;7693;49.266;7.104;2024-01-15T09:29:02;0.20;99.90
15184;DHT22;7693;49.266;7.104;2024-01-15T09:31:28;0.20;99.90
15184;DHT22;7693;49.266;7.104;2024-01-15T09:33:54;0.20;99.90
15184;DHT22;7693;49.266;7.104;2024-01-15T09:36:24;0.30;99.90
15184;DHT22;7693;49.266;7.104;2024-01-15T09:38:49;0.30;99.90
15184;DHT22;7693;49.266;7.104;2024-01-15T09:41:15;0.30;99.90
15184;DHT22;7693;49.266;7.104;2024-01-15T09:43:41;0.30;99.90
15184;DHT22;7693;49.266;7.104;2024-01-15T09:46:07;0.30;99.90
15184;DHT22;7693;49.266;7.104;2024-01-15T09:48:33;0.40;99.90
15184;DHT22;7693;49.266;7.104;2024-01-15T09:51:02;0.30;99.90
15184;DHT22;7693;49.266;7.104;2024-01-15T09:53:28;0.40;99.90
15184;DHT22;7693;49.266;7.104;2024-01-15T09:55:54;0.40;99.90
15184;DHT22;7693;49.266;7.104;2024-01-15T09:58:20;0.40;99.90
15184;DHT22;7693;49.266;7.104;2024-01-15T10:00:48;0.40;99.90
15184;DHT22;7693;49.266;7.104;2024-01-15T10:03:15;0.50;99.90
15184;DHT22;7693;49.266;7.104;2024-01-15T10:05:41;0.50;99.90
15184;DHT22;7693;49.266;7.104;2024-01-15T10:08:07;0.50;99.90
15184;DHT22;7693;49.266;7.104;2024-01-15T10:10:33;0.50;99.90
15184;DHT22;7693;49.266;7.104;2024-01-15T10:13:01;0.50;99.90
15184;DHT22;7693;49.266;7.104;2024-01-15T10:15:26;0.50;99.90
15184;DHT22;7693;49.266;7.104;2024-01-15T10:17:52;0.50;99.90
15184;DHT22;7693;49.266;7.104;2024-01-15T10:20:18;0.60;99.90
15184;DHT22;7693;49.266;7.104;2024-01-15T10:22:46;0.60;99.90
15184;DHT22;7693;49.266;7.104;2024-01-15T10:25:15;0.60;99.90
15184;DHT22;7693;49.266;7.104;2024-01-15T10:27:41;0.70;99.90
15184;DHT22;7693;49.266;7.104;2024-01-15T10:30:08;0.70;99.90
15184;DHT22;7693;49.266;7.104;2024-01-15T10:32:33;0.70;99.90
15184;DHT22;7693;49.266;7.104;2024-01-15T10:34:59;0.70;99.90
15184;DHT22;7693;49.266;7.104;2024-01-15T10:37:25;0.70;99.90
15184;DHT22;7693;49.266;7.104;2024-01-15T10:39:51;0.70;99.90
15184;DHT22;7693;49.266;7.104;2024-01-15T10:42:17;0.80;99.90
15184;DHT22;7693;49.266;7.104;2024-01-15T10:44:44;0.80;99.90
15184;DHT22;7693;49.266;7.104;2024-01-15T10:47:10;0.80;99.90
15184;DHT22;7693;49.266;7.104;2024-01-15T10:49:36;0.80;99.90
15184;DHT22;7693;49.266;7.104;2024-01-15T10:52:03;0.80;99.90
15184;DHT22;7693;49.266;7.104;2024-01-15T10:54:29;0.80;99.90
15184;DHT22;7693;49.266;7.104;2024-01-15T10:56:56;0.90;99.90
15184;DHT22;7693;49.266;7.104;2024-01-15T13:09:52;1.30;99.90
15184;DHT22;7693;49.266;7.104;2024-01-15T13:12:20;1.40;99.90
15184;DHT22;7693;49.266;7.104;2024-01-15T13:14:46;1.50;99.90
15184;DHT22;7693;49.266;7.104;2024-01-15T13:17:13;1.70;99.90
15184;DHT22;7693;49.266;7.104;2024-01-15T13:19:40;1.80;99.90
15184;DHT22;7693;49.266;7.104;2024-01-15T13:22:05;1.80;99.90
15184;DHT22;7693;49.266;7.104;2024-01-15T13:24:33;1.80;99.90
15184;DHT22;7693;49.266;7.104;2024-01-15T13:26:59;1.80;99.90
15184;DHT22;7693;49.266;7.104;2024-01-15T13:29:25;1.90;99.90
15184;DHT22;7693;49.266;7.104;2024-01-15T13:31:51;1.90;99.90
15184;DHT22;7693;49.266;7.104;2024-01-15T13:34:16;2.00;99.90
15184;DHT22;7693;49.266;7.104;2024-01-15T13:36:42;2.00;99.90
15184;DHT22;7693;49.266;7.104;2024-01-15T13:39:08;2.10;99.90
15184;DHT22;7693;49.266;7.104;2024-01-15T13:41:34;2.10;99.90
15184;DHT22;7693;49.266;7.104;2024-01-15T13:44:00;2.10;99.90
15184;DHT22;7693;49.266;7.104;2024-01-15T13:46:26;2.00;99.90
15184;DHT22;7693;49.266;7.104;2024-01-15T13:48:52;2.00;99.90
15184;DHT22;7693;49.266;7.104;2024-01-15T13:51:18;1.90;99.90
15184;DHT22;7693;49.266;7.104;2024-01-15T13:53:44;1.80;99.90
15184;DHT22;7693;49.266;7.104;2024-01-15T13:56:10;1.80;99.90
15184;DHT22;7693;49.266;7.104;2024-01-15T13:58:36;1.70;99.90
15184;DHT22;7693;49.266;7.104;2024-01-15T14:01:03;1.60;99.90
15184;DHT22;7693;49.266;7.104;2024-01-15T14:03:32;1.50;99.90
15184;DHT22;7693;49.266;7.104;2024-01-15T14:05:58;1.50;99.90
15184;DHT22;7693;49.266;7.104;2024-01-15T14:08:24;1.50;99.90
15184;DHT22;7693;49.266;7.104;2024-01-15T14:10:51;1.60;99.90
15184;DHT22;7693;49.266;7.104;2024-01-15T14:13:16;1.70;99.90
15184;DHT22;7693;49.266;7.104;2024-01-15T14:15:42;1.60;99.90
15184;DHT22;7693;49.266;7.104;2024-01-15T14:18:08;1.60;99.90
15184;DHT22;7693;49.266;7.104;2024-01-15T14:20:34;1.60;99.90
15184;DHT22;7693;49.266;7.104;2024-01-15T14:22:59;1.60;99.90
15184;DHT22;7693;49.266;7.104;2024-01-15T14:25:25;1.60;99.90
15184;DHT22;7693;49.266;7.104;2024-01-15T14:27:50;1.50;99.90
15184;DHT22;7693;49.266;7.104;2024-01-15T14:30:16;1.50;99.90
15184;DHT22;7693;49.266;7.104;2024-01-15T14:32:42;1.50;99.90
15184;DHT22;7693;49.266;7.104;2024-01-15T14:35:09;1.50;99.90
15184;DHT22;7693;49.266;7.104;2024-01-15T14:37:39;1.50;99.90
15184;DHT22;7693;49.266;7.104;2024-01-15T14:40:06;1.50;99.90
15184;DHT22;7693;49.266;7.104;2024-01-15T14:42:33;1.40;99.90
15184;DHT22;7693;49.266;7.104;2024-01-15T14:44:59;1.40;99.90
15184;DHT22;7693;49.266;7.104;2024-01-15T14:47:26;1.40;99.90
15184;DHT22;7693;49.266;7.104;2024-01-15T14:49:53;1.40;99.90
15184;DHT22;7693;49.266;7.104;2024-01-15T14:52:18;1.40;99.90
15184;DHT22;7693;49.266;7.104;2024-01-15T14:54:45;1.40;99.90
15184;DHT22;7693;49.266;7.104;2024-01-15T14:57:13;1.30;99.90
15184;DHT22;7693;49.266;7.104;2024-01-15T14:59:38;1.30;99.90
15184;DHT22;7693;49.266;7.104;2024-01-15T15:02:04;1.30;99.90
15184;DHT22;7693;49.266;7.104;2024-01-15T15:04:30;1.30;99.90
15184;DHT22;7693;49.266;7.104;2024-01-15T15:06:56;1.30;99.90
15184;DHT22;7693;49.266;7.104;2024-01-15T15:09:22;1.30;99.90
15184;DHT22;7693;49.266;7.104;2024-01-15T15:11:48;1.30;99.90
15184;DHT22;7693;49.266;7.104;2024-01-15T15:14:13;1.30;99.90
15184;DHT22;7693;49.266;7.104;2024-01-15T15:16:39;1.30;99.90
15184;DHT22;7693;49.266;7.104;2024-01-15T15:19:04;1.20;99.90
15184;DHT22;7693;49.266;7.104;2024-01-15T15:21:30;1.20;99.90
15184;DHT22;7693;49.266;7.104;2024-01-15T15:23:56;1.20;99.90
15184;DHT22;7693;49.266;7.104;2024-01-15T15:26:21;1.10;99.90
15184;DHT22;7693;49.266;7.104;2024-01-15T15:28:47;1.00;99.90
15184;DHT22;7693;49.266;7.104;2024-01-15T15:31:14;0.90;99.90
15184;DHT22;7693;49.266;7.104;2024-01-15T15:33:40;0.90;99.90
15184;DHT22;7693;49.266;7.104;2024-01-15T15:36:05;0.80;99.90
15184;DHT22;7693;49.266;7.104;2024-01-15T15:38:32;0.80;99.90
15184;DHT22;7693;49.266;7.104;2024-01-15T15:40:58;0.80;99.90
15184;DHT22;7693;49.266;7.104;2024-01-15T15:43:25;0.80;99.90
15184;DHT22;7693;49.266;7.104;2024-01-15T15:45:51;0.80;99.90
15184;DHT22;7693;49.266;7.104;2024-01-15T15:48:16;0.80;99.90
15184;DHT22;7693;49.266;7.104;2024-01-15T15:50:42;0.70;99.90
15184;DHT22;7693;49.266;7.104;2024-01-15T15:53:08;0.70;99.90
15184;DHT22;7693;49.266;7.104;2024-01-15T15:55:33;0.70;99.90
15184;DHT22;7693;49.266;7.104;2024-01-15T15:58:02;0.70;99.90
15184;DHT22;7693;49.266;7.104;2024-01-15T16:00:29;0.60;99.90
15184;DHT22;7693;49.266;7.104;2024-01-15T16:02:55;0.60;99.90
15184;DHT22;7693;49.266;7.104;2024-01-15T16:05:20;0.60;99.90
15184;DHT22;7693;49.266;7.104;2024-01-15T16:07:46;0.60;99.90
15184;DHT22;7693;49.266;7.104;2024-01-15T16:10:12;0.60;99.90
15184;DHT22;7693;49.266;7.104;2024-01-15T16:12:37;0.50;99.90
15184;DHT22;7693;49.266;7.104;2024-01-15T16:15:20;0.50;99.90
15184;DHT22;7693;49.266;7.104;2024-01-15T16:17:46;0.50;99.90
15184;DHT22;7693;49.266;7.104;2024-01-15T16:20:12;0.50;99.90
15184;DHT22;7693;49.266;7.104;2024-01-15T16:22:38;0.50;99.90
15184;DHT22;7693;49.266;7.104;2024-01-15T16:25:04;0.50;99.90
15184;DHT22;7693;49.266;7.104;2024-01-15T16:27:30;0.50;99.90
15184;DHT22;7693;49.266;7.104;2024-01-15T16:29:56;0.50;99.90
15184;DHT22;7693;49.266;7.104;2024-01-15T16:32:21;0.50;99.90
15184;DHT22;7693;49.266;7.104;2024-01-15T16:34:47;0.50;99.90
15184;DHT22;7693;49.266;7.104;2024-01-15T16:37:12;0.60;99.90
15184;DHT22;7693;49.266;7.104;2024-01-15T16:39:38;0.60;99.90
15184;DHT22;7693;49.266;7.104;2024-01-15T16:42:05;0.60;99.90
15184;DHT22;7693;49.266;7.104;2024-01-15T16:44:33;0.60;99.90
15184;DHT22;7693;49.266;7.104;2024-01-15T16:46:59;0.60;99.90
15184;DHT22;7693;49.266;7.104;2024-01-15T16:49:26;0.60;99.90
15184;DHT22;7693;49.266;7.104;2024-01-15T16:51:52;0.60;99.90
15184;DHT22;7693;49.266;7.104;2024-01-15T16:54:18;0.60;99.90
15184;DHT22;7693;49.266;7.104;2024-01-15T16:56:43;0.60;99.90
15184;DHT22;7693;49.266;7.104;2024-01-15T16:59:10;0.60;99.90
15184;DHT22;7693;49.266;7.104;2024-01-15T17:01:36;0.60;99.90
15184;DHT22;7693;49.266;7.104;2024-01-15T17:04:02;0.60;99.90
15184;DHT22;7693;49.266;7.104;2024-01-15T17:06:27;0.60;99.90
15184;DHT22;7693;49.266;7.104;2024-01-15T17:08:53;0.60;99.90
15184;DHT22;7693;49.266;7.104;2024-01-15T17:11:19;0.60;99.90
15184;DHT22;7693;49.266;7.104;2024-01-15T17:13:44;0.60;99.90
15184;DHT22;7693;49.266;7.104;2024-01-15T17:16:10;0.70;99.90
15184;DHT22;7693;49.266;7.104;2024-01-15T17:18:36;0.70;99.90
15184;DHT22;7693;49.266;7.104;2024-01-15T17:21:01;0.60;99.90
15184;DHT22;7693;49.266;7.104;2024-01-15T17:23:27;0.70;99.90
15184;DHT22;7693;49.266;7.104;2024-01-15T17:25:53;0.70;99.90
15184;DHT22;7693;49.266;7.104;2024-01-15T17:28:19;0.70;99.90
15184;DHT22;7693;49.266;7.104;2024-01-15T17:30:45;0.70;99.90
15184;DHT22;7693;49.266;7.104;2024-01-15T17:33:12;0.70;99.90
15184;DHT22;7693;49.266;7.104;2024-01-15T17:35:39;0.70;99.90
15184;DHT22;7693;49.266;7.104;2024-01-15T17:38:04;0.70;99.90
15184;DHT22;7693;49.266;7.104;2024-01-15T17:40:30;0.70;99.90
15184;DHT22;7693;49.266;7.104;2024-01-15T17:42:56;0.70;99.90
15184;DHT22;7693;49.266;7.104;2024-01-15T17:45:21;0.70;99.90
15184;DHT22;7693;49.266;7.104;2024-01-15T17:47:47;0.70;99.90
15184;DHT22;7693;49.266;7.104;2024-01-15T17:50:16;0.70;99.90
15184;DHT22;7693;49.266;7.104;2024-01-15T17:52:44;0.70;99.90
15184;DHT22;7693;49.266;7.104;2024-01-15T17:55:10;0.70;99.90
15184;DHT22;7693;49.266;7.104;2024-01-15T17:57:36;0.70;99.90
15184;DHT22;7693;49.266;7.104;2024-01-15T18:00:02;0.70;99.90
15184;DHT22;7693;49.266;7.104;2024-01-15T18:02:30;0.70;99.90
15184;DHT22;7693;49.266;7.104;2024-01-15T18:04:56;0.70;99.90
15184;DHT22;7693;49.266;7.104;2024-01-15T18:07:22;0.70;99.90
15184;DHT22;7693;49.266;7.104;2024-01-15T18:09:48;0.70;99.90
15184;DHT22;7693;49.266;7.104;2024-01-15T18:12:14;0.70;99.90
15184;DHT22;7693;49.266;7.104;2024-01-15T18:14:39;0.70;99.90
15184;DHT22;7693;49.266;7.104;2024-01-15T18:17:05;0.70;99.90
15184;DHT22;7693;49.266;7.104;2024-01-15T18:19:31;0.70;99.90
15184;DHT22;7693;49.266;7.104;2024-01-15T18:21:56;0.70;99.90
15184;DHT22;7693;49.266;7.104;2024-01-15T18:24:22;0.70;99.90
15184;DHT22;7693;49.266;7.104;2024-01-15T18:26:50;0.70;99.90
15184;DHT22;7693;49.266;7.104;2024-01-15T18:29:18;0.70;99.90
15184;DHT22;7693;49.266;7.104;2024-01-15T18:31:47;0.70;99.90
15184;DHT22;7693;49.266;7.104;2024-01-15T18:34:13;0.70;99.90
15184;DHT22;7693;49.266;7.104;2024-01-15T18:36:39;0.70;99.90
15184;DHT22;7693;49.266;7.104;2024-01-15T18:39:05;0.70;99.90
15184;DHT22;7693;49.266;7.104;2024-01-15T18:41:32;0.70;99.90
15184;DHT22;7693;49.266;7.104;2024-01-15T18:43:58;0.70;99.90
15184;DHT22;7693;49.266;7.104;2024-01-15T18:46:24;0.70;99.90
15184;DHT22;7693;49.266;7.104;2024-01-15T18:48:50;0.70;99.90
15184;DHT22;7693;49.266;7.104;2024-01-15T18:51:20;0.70;99.90
15184;DHT22;7693;49.266;7.104;2024-01-15T18:53:45;0.70;99.90
15184;DHT22;7693;49.266;7.104;2024-01-15T18:56:11;0.80;99.90
15184;DHT22;7693;49.266;7.104;2024-01-15T18:58:36;0.70;99.90
15184;DHT22;7693;49.266;7.104;2024-01-15T19:01:07;0.70;99.90
15184;DHT22;7693;49.266;7.104;2024-01-15T19:03:33;0.70;99.90
15184;DHT22;7693;49.266;7.104;2024-01-15T19:05:58;0.80;99.90
15184;DHT22;7693;49.266;7.104;2024-01-15T19:08:24;0.80;99.90
15184;DHT22;7693;49.266;7.104;2024-01-15T19:10:50;0.80;99.90
15184;DHT22;7693;49.266;7.104;2024-01-15T19:13:15;0.80;99.90
15184;DHT22;7693;49.266;7.104;2024-01-15T19:15:41;0.80;99.90
15184;DHT22;7693;49.266;7.104;2024-01-15T19:18:06;0.80;99.90
15184;DHT22;7693;49.266;7.104;2024-01-15T19:20:32;0.80;99.90
15184;DHT22;7693;49.266;7.104;2024-01-15T19:22:58;0.80;99.90
15184;DHT22;7693;49.266;7.104;2024-01-15T19:25:25;0.80;99.90
15184;DHT22;7693;49.266;7.104;2024-01-15T19:27:51;0.80;99.90
15184;DHT22;7693;49.266;7.104;2024-01-15T19:30:17;0.80;99.90
15184;DHT22;7693;49.266;7.104;2024-01-15T19:32:43;0.80;99.90
15184;DHT22;7693;49.266;7.104;2024-01-15T19:35:11;0.80;99.90
15184;DHT22;7693;49.266;7.104;2024-01-15T19:37:37;0.80;99.90
15184;DHT22;7693;49.266;7.104;2024-01-15T19:40:04;0.80;99.90
15184;DHT22;7693;49.266;7.104;2024-01-15T19:42:30;0.70;99.90
15184;DHT22;7693;49.266;7.104;2024-01-15T19:44:56;0.70;99.90
15184;DHT22;7693;49.266;7.104;2024-01-15T19:47:24;0.70;99.90
15184;DHT22;7693;49.266;7.104;2024-01-15T19:49:50;0.70;99.90
15184;DHT22;7693;49.266;7.104;2024-01-15T19:52:16;0.60;99.90
15184;DHT22;7693;49.266;7.104;2024-01-15T19:54:41;0.60;99.90
15184;DHT22;7693;49.266;7.104;2024-01-15T19:57:07;0.50;99.90
15184;DHT22;7693;49.266;7.104;2024-01-15T19:59:33;0.50;99.90
15184;DHT22;7693;49.266;7.104;2024-01-15T20:01:59;0.50;99.90
15184;DHT22;7693;49.266;7.104;2024-01-15T20:04:25;0.40;99.90
15184;DHT22;7693;49.266;7.104;2024-01-15T20:06:50;0.40;99.90
15184;DHT22;7693;49.266;7.104;2024-01-15T20:09:16;0.40;99.90
15184;DHT22;7693;49.266;7.104;2024-01-15T20:11:42;0.40;99.90
15184;DHT22;7693;49.266;7.104;2024-01-15T20:14:10;0.40;99.90
15184;DHT22;7693;49.266;7.104;2024-01-15T20:16:35;0.40;99.90
15184;DHT22;7693;49.266;7.104;2024-01-15T20:19:01;0.40;99.90
15184;DHT22;7693;49.266;7.104;2024-01-15T20:21:27;0.40;99.90
15184;DHT22;7693;49.266;7.104;2024-01-15T20:23:53;0.40;99.90
15184;DHT22;7693;49.266;7.104;2024-01-15T20:26:18;0.40;99.90
15184;DHT22;7693;49.266;7.104;2024-01-15T20:28:44;0.40;99.90
15184;DHT22;7693;49.266;7.104;2024-01-15T20:31:16;0.40;99.90
15184;DHT22;7693;49.266;7.104;2024-01-15T20:33:42;0.30;99.90
15184;DHT22;7693;49.266;7.104;2024-01-15T20:36:08;0.30;99.90
15184;DHT22;7693;49.266;7.104;2024-01-15T20:38:34;0.20;99.90
15184;DHT22;7693;49.266;7.104;2024-01-15T20:41:01;0.20;99.90
15184;DHT22;7693;49.266;7.104;2024-01-15T20:43:27;0.20;99.90
15184;DHT22;7693;49.266;7.104;2024-01-15T20:45:54;0.30;99.90
15184;DHT22;7693;49.266;7.104;2024-01-15T20:48:19;0.30;99.90
15184;DHT22;7693;49.266;7.104;2024-01-15T20:50:45;0.30;99.90
15184;DHT22;7693;49.266;7.104;2024-01-15T20:53:11;0.30;99.90
15184;DHT22;7693;49.266;7.104;2024-01-15T20:55:36;0.30;99.90
15184;DHT22;7693;49.266;7.104;2024-01-15T20:58:02;0.30;99.90
15184;DHT22;7693;49.266;7.104;2024-01-15T21:00:28;0.30;99.90
15184;DHT22;7693;49.266;7.104;2024-01-15T21:02:54;0.30;99.90
15184;DHT22;7693;49.266;7.104;2024-01-15T21:05:20;0.30;99.90
15184;DHT22;7693;49.266;7.104;2024-01-15T21:07:50;0.20;99.90
15184;DHT22;7693;49.266;7.104;2024-01-15T21:10:16;0.20;99.90
15184;DHT22;7693;49.266;7.104;2024-01-15T21:12:41;0.10;99.90
15184;DHT22;7693;49.266;7.104;2024-01-15T21:15:08;0.10;99.90
15184;DHT22;7693;49.266;7.104;2024-01-15T21:17:34;0.10;99.90
15184;DHT22;7693;49.266;7.104;2024-01-15T21:19:59;0.10;99.90
15184;DHT22;7693;49.266;7.104;2024-01-15T21:22:25;0.00;99.90
15184;DHT22;7693;49.266;7.104;2024-01-15T21:24:54;0.00;99.90
15184;DHT22;7693;49.266;7.104;2024-01-15T21:27:19;0.00;99.90
15184;DHT22;7693;49.266;7.104;2024-01-15T21:29:45;0.10;99.90
15184;DHT22;7693;49.266;7.104;2024-01-15T21:32:13;0.10;99.90
15184;DHT22;7693;49.266;7.104;2024-01-15T21:34:38;0.10;99.90
15184;DHT22;7693;49.266;7.104;2024-01-15T21:37:04;0.20;99.90
15184;DHT22;7693;49.266;7.104;2024-01-15T21:39:30;0.10;99.90
15184;DHT22;7693;49.266;7.104;2024-01-15T21:41:56;0.20;99.90
15184;DHT22;7693;49.266;7.104;2024-01-15T21:59:10;0.20;99.90
15184;DHT22;7693;49.266;7.104;2024-01-15T22:01:36;0.60;99.90
15184;DHT22;7693;49.266;7.104;2024-01-15T22:04:01;0.50;99.90
15184;DHT22;7693;49.266;7.104;2024-01-15T22:06:27;0.50;99.90
15184;DHT22;7693;49.266;7.104;2024-01-15T22:08:52;0.40;99.90
15184;DHT22;7693;49.266;7.104;2024-01-15T22:11:19;0.30;99.90
15184;DHT22;7693;49.266;7.104;2024-01-15T22:13:44;0.30;99.90
15184;DHT22;7693;49.266;7.104;2024-01-15T22:16:10;0.30;99.90
15184;DHT22;7693;49.266;7.104;2024-01-15T22:18:35;0.20;99.90
15184;DHT22;7693;49.266;7.104;2024-01-15T22:21:01;0.20;99.90
15184;DHT22;7693;49.266;7.104;2024-01-15T22:23:27;0.10;99.90
15184;DHT22;7693;49.266;7.104;2024-01-15T22:25:53;0.20;99.90
15184;DHT22;7693;49.266;7.104;2024-01-15T22:28:18;0.20;99.90
15184;DHT22;7693;49.266;7.104;2024-01-15T22:30:44;0.20;99.90
15184;DHT22;7693;49.266;7.104;2024-01-15T22:33:10;0.20;99.90
15184;DHT22;7693;49.266;7.104;2024-01-15T22:35:35;0.20;99.90
15184;DHT22;7693;49.266;7.104;2024-01-15T22:38:01;0.20;99.90
15184;DHT22;7693;49.266;7.104;2024-01-15T22:40:29;0.20;99.90
15184;DHT22;7693;49.266;7.104;2024-01-15T22:42:57;0.20;99.90
15184;DHT22;7693;49.266;7.104;2024-01-15T22:45:23;0.20;99.90
15184;DHT22;7693;49.266;7.104;2024-01-15T22:47:48;0.20;99.90
15184;DHT22;7693;49.266;7.104;2024-01-15T22:50:14;0.20;99.90
15184;DHT22;7693;49.266;7.104;2024-01-15T22:52:40;0.20;99.90
15184;DHT22;7693;49.266;7.104;2024-01-15T22:55:06;0.20;99.90
15184;DHT22;7693;49.266;7.104;2024-01-15T22:57:32;0.30;99.90
15184;DHT22;7693;49.266;7.104;2024-01-15T22:59:58;0.30;99.90
15184;DHT22;7693;49.266;7.104;2024-01-15T23:02:23;0.30;99.90
15184;DHT22;7693;49.266;7.104;2024-01-15T23:04:49;0.30;99.90
15184;DHT22;7693;49.266;7.104;2024-01-15T23:07:15;0.30;99.90
15184;DHT22;7693;49.266;7.104;2024-01-15T23:09:41;0.30;99.90
15184;DHT22;7693;49.266;7.104;2024-01-15T23:12:07;0.40;99.90
15184;DHT22;7693;49.266;7.104;2024-01-15T23:14:34;0.40;99.90
15184;DHT22;7693;49.266;7.104;2024-01-15T23:17:00;0.40;99.90
15184;DHT22;7693;49.266;7.104;2024-01-15T23:19:25;0.40;99.90
15184;DHT22;7693;49.266;7.104;2024-01-15T23:21:52;0.40;99.90
15184;DHT22;7693;49.266;7.104;2024-01-15T23:24:17;0.40;99.90
15184;DHT22;7693;49.266;7.104;2024-01-15T23:26:43;0.40;99.90
15184;DHT22;7693;49.266;7.104;2024-01-15T23:29:09;0.40;99.90
15184;DHT22;7693;49.266;7.104;2024-01-15T23:31:39;0.40;99.90
